createdAt,value
2019-05-12T00:02:48.402Z,11.60
2019-05-12T00:07:51.156Z,11.50
2019-05-12T00:12:54.806Z,11.50
2019-05-12T00:17:58.833Z,11.40
2019-05-12T00:23:04.255Z,11.30
2019-05-12T00:28:08.000Z,11.30
2019-05-12T00:33:11.692Z,11.20
2019-05-12T00:38:17.520Z,11.10
2019-05-12T00:43:20.733Z,11.20
2019-05-12T00:48:24.763Z,10.90
2019-05-12T00:53:39.404Z,11.00
2019-05-12T00:58:33.722Z,10.90
2019-05-12T01:03:38.174Z,10.90
2019-05-12T01:08:41.971Z,10.70
2019-05-12T01:13:45.523Z,10.60
2019-05-12T01:18:49.377Z,10.50
2019-05-12T01:23:57.082Z,10.40
2019-05-12T01:28:58.321Z,10.40
2019-05-12T01:34:01.962Z,10.40
2019-05-12T01:39:08.426Z,10.40
2019-05-12T01:44:12.203Z,10.50
2019-05-12T01:49:18.479Z,10.40
2019-05-12T01:54:21.039Z,10.50
2019-05-12T01:59:24.637Z,10.50
2019-05-12T02:04:29.831Z,10.30
2019-05-12T02:09:35.146Z,10.40
2019-05-12T02:14:38.727Z,10.30
2019-05-12T02:19:42.328Z,10.20
2019-05-12T02:24:47.834Z,10.00
2019-05-12T02:29:51.220Z,9.90
2019-05-12T02:34:54.914Z,9.90
2019-05-12T02:39:58.789Z,9.90
2019-05-12T02:45:05.521Z,9.80
2019-05-12T02:50:08.594Z,9.90
2019-05-12T02:55:14.945Z,9.70
2019-05-12T03:00:19.211Z,9.90
2019-05-12T03:05:24.815Z,9.60
2019-05-12T03:10:28.381Z,9.60
2019-05-12T03:15:35.851Z,9.70
2019-05-12T03:20:37.376Z,9.60
2019-05-12T03:25:40.972Z,9.40
2019-05-12T03:30:48.559Z,9.00
2019-05-12T03:35:54.982Z,8.90
2019-05-12T03:40:56.275Z,8.60
2019-05-12T03:45:59.867Z,8.20
2019-05-12T03:51:05.691Z,8.20
2019-05-12T03:56:08.682Z,7.90
2019-05-12T04:01:14.962Z,7.90
2019-05-12T04:06:17.624Z,7.90
2019-05-12T04:11:24.742Z,7.90
2019-05-12T04:16:26.568Z,7.70
2019-05-12T04:21:30.119Z,7.60
2019-05-12T04:26:36.477Z,7.50
2019-05-12T04:31:39.040Z,7.10
2019-05-12T04:36:44.970Z,7.10
2019-05-12T04:41:47.874Z,6.70
2019-05-12T04:46:51.454Z,6.90
2019-05-12T04:51:55.026Z,7.00
2019-05-12T04:56:58.631Z,7.00
2019-05-12T05:02:05.328Z,6.90
2019-05-12T05:07:07.574Z,6.80
2019-05-12T05:12:13.747Z,6.80
2019-05-12T05:17:16.455Z,6.80
2019-05-12T05:22:20.147Z,6.40
2019-05-12T05:27:24.732Z,6.30
2019-05-12T05:32:28.760Z,6.50
2019-05-12T05:37:36.907Z,6.20
2019-05-12T05:42:37.768Z,6.10
2019-05-12T05:47:41.337Z,5.80
2019-05-12T05:52:44.923Z,5.70
2019-05-12T05:57:48.581Z,5.60
2019-05-12T06:02:54.459Z,5.70
2019-05-12T06:07:57.784Z,5.70
2019-05-12T06:13:03.785Z,5.80
2019-05-12T06:18:06.876Z,5.70
2019-05-12T06:23:10.796Z,5.70
2019-05-12T06:28:14.622Z,5.70
2019-05-12T06:33:22.836Z,5.90
2019-05-12T06:38:23.731Z,5.90
2019-05-12T06:43:29.196Z,5.80
2019-05-12T06:48:33.387Z,5.80
2019-05-12T06:53:37.008Z,5.80
2019-05-12T06:58:40.578Z,5.70
2019-05-12T07:03:44.214Z,5.70
2019-05-12T07:09:02.056Z,5.70
2019-05-12T07:14:02.095Z,5.60
2019-05-12T07:18:58.763Z,5.60
2019-05-12T07:24:06.657Z,5.50
2019-05-12T07:29:07.743Z,5.50
2019-05-12T07:34:13.525Z,5.50
2019-05-12T07:39:19.051Z,5.50
2019-05-12T07:44:26.302Z,5.50
2019-05-12T07:49:35.177Z,5.50
2019-05-12T07:54:39.343Z,5.60
2019-05-12T07:59:41.157Z,5.60
2019-05-12T08:04:44.781Z,5.70
2019-05-12T08:09:48.416Z,5.80
2019-05-12T08:14:54.091Z,6.00
2019-05-12T08:19:57.621Z,6.00
2019-05-12T08:25:01.235Z,6.10
2019-05-12T08:30:06.634Z,6.20
2019-05-12T08:35:10.370Z,6.40
2019-05-12T08:40:15.560Z,6.40
2019-05-12T08:45:25.681Z,6.50
2019-05-12T08:50:31.427Z,6.70
2019-05-12T08:55:32.462Z,6.60
2019-05-12T09:00:46.383Z,6.70
2019-05-12T09:05:46.863Z,6.60
2019-05-12T09:10:53.144Z,6.70
2019-05-12T09:15:58.242Z,6.60
2019-05-12T09:21:03.778Z,6.60
2019-05-12T09:26:07.388Z,6.70
2019-05-12T09:31:11.051Z,6.70
2019-05-12T09:36:19.890Z,6.70
2019-05-12T09:41:20.084Z,6.70
2019-05-12T09:46:28.406Z,6.70
2019-05-12T09:51:32.944Z,6.60
2019-05-12T09:56:34.610Z,6.70
2019-05-12T10:01:39.671Z,6.80
2019-05-12T10:06:44.457Z,6.60
2019-05-12T10:11:53.931Z,6.50
2019-05-12T10:16:53.383Z,6.40
2019-05-12T10:21:59.396Z,6.40
2019-05-12T10:27:03.826Z,6.20
2019-05-12T10:32:10.316Z,6.20
2019-05-12T10:37:13.432Z,6.20
2019-05-12T10:42:17.241Z,6.30
2019-05-12T10:47:20.916Z,6.30
2019-05-12T10:52:29.451Z,6.30
2019-05-12T10:57:30.036Z,6.30
2019-05-12T11:02:33.770Z,6.30
2019-05-12T11:07:37.425Z,6.30
2019-05-12T11:12:44.142Z,6.30
2019-05-12T11:17:53.350Z,6.40
2019-05-12T11:22:57.379Z,6.50
2019-05-12T11:28:03.415Z,6.40
2019-05-12T11:33:06.500Z,6.50
2019-05-12T11:38:10.212Z,6.60
2019-05-12T11:43:14.519Z,6.70
2019-05-12T11:48:18.415Z,6.70
2019-05-12T11:53:30.338Z,6.80
2019-05-12T11:58:27.375Z,6.90
2019-05-12T12:03:30.951Z,7.10
2019-05-12T12:08:37.176Z,7.10
2019-05-12T12:13:39.822Z,7.00
2019-05-12T12:18:46.661Z,6.90
2019-05-12T12:23:50.300Z,7.00
2019-05-12T12:28:54.765Z,7.00
2019-05-12T12:33:58.426Z,7.00
2019-05-12T12:39:04.090Z,6.90
2019-05-12T12:44:07.335Z,6.90
2019-05-12T12:49:11.047Z,7.00
2019-05-12T12:54:14.670Z,7.10
2019-05-12T12:59:18.323Z,7.20
2019-05-12T13:04:22.075Z,7.40
2019-05-12T13:09:25.663Z,7.40
2019-05-12T13:14:36.485Z,7.50
2019-05-12T13:19:34.737Z,7.50
2019-05-12T13:24:38.303Z,7.60
2019-05-12T13:29:41.999Z,7.60
2019-05-12T13:34:45.561Z,7.70
2019-05-12T13:39:58.643Z,7.80
2019-05-12T13:44:54.595Z,7.90
2019-05-12T13:49:58.245Z,8.20
2019-05-12T13:55:05.394Z,8.40
2019-05-12T14:00:10.603Z,8.60
2019-05-12T14:05:15.187Z,8.60
2019-05-12T14:10:19.446Z,8.80
2019-05-12T14:15:24.919Z,8.90
2019-05-12T14:20:28.851Z,9.00
2019-05-12T14:25:34.998Z,9.20
2019-05-12T14:30:41.158Z,9.40
2019-05-12T14:35:45.919Z,9.30
2019-05-12T14:40:48.581Z,9.40
2019-05-12T14:45:54.119Z,9.60
2019-05-12T14:50:57.887Z,9.60
2019-05-12T14:56:03.723Z,9.70
2019-05-12T15:01:07.047Z,9.90
2019-05-12T15:06:13.987Z,9.80
2019-05-12T15:11:17.582Z,9.70
2019-05-12T15:16:21.255Z,9.80
2019-05-12T15:21:27.319Z,10.10
2019-05-12T15:26:30.171Z,10.30
2019-05-12T15:31:33.889Z,10.00
2019-05-12T15:36:37.573Z,10.00
2019-05-12T15:41:41.220Z,10.00
2019-05-12T15:46:46.667Z,10.10
2019-05-12T15:51:54.108Z,10.10
2019-05-12T15:56:55.756Z,10.20
2019-05-12T16:02:09.544Z,10.30
2019-05-12T16:07:04.988Z,10.40
2019-05-12T16:12:18.703Z,10.30
2019-05-12T16:17:18.970Z,10.30
2019-05-12T16:22:19.597Z,10.20
2019-05-12T16:27:25.021Z,10.30
2019-05-12T16:32:39.159Z,10.30
2019-05-12T16:37:35.235Z,10.20
2019-05-12T16:42:40.811Z,10.20
2019-05-12T16:47:45.026Z,10.10
2019-05-12T16:52:48.723Z,10.10
2019-05-12T16:57:55.807Z,10.10
2019-05-12T17:02:58.176Z,10.10
2019-05-12T17:08:04.203Z,10.10
2019-05-12T17:13:13.159Z,10.00
2019-05-12T17:18:13.587Z,9.90
2019-05-12T17:23:17.263Z,9.90
2019-05-12T17:28:21.007Z,9.90
2019-05-12T17:33:27.371Z,9.90
2019-05-12T17:38:30.320Z,9.80
2019-05-12T17:43:34.071Z,9.60
2019-05-12T17:48:42.875Z,9.80
2019-05-12T17:53:43.451Z,9.80
2019-05-12T17:58:47.657Z,9.40
2019-05-12T18:03:53.457Z,9.00
2019-05-12T18:08:56.792Z,8.60
2019-05-12T18:14:02.548Z,8.60
2019-05-12T18:19:08.960Z,8.50
2019-05-12T18:24:14.085Z,8.70
2019-05-12T18:29:16.760Z,8.70
2019-05-12T18:34:20.346Z,8.90
2019-05-12T18:39:26.340Z,8.60
2019-05-12T18:44:31.586Z,8.40
2019-05-12T18:49:35.511Z,8.50
2019-05-12T18:54:43.126Z,8.40
2019-05-12T18:59:46.128Z,8.40
2019-05-12T19:04:53.478Z,8.10
2019-05-12T19:09:56.966Z,7.70
2019-05-12T19:15:00.682Z,7.20
2019-05-12T19:20:07.769Z,7.60
2019-05-12T19:25:18.726Z,7.80
2019-05-12T19:30:25.313Z,7.70
2019-05-12T19:35:26.805Z,7.50
2019-05-12T19:40:30.395Z,7.80
2019-05-12T19:45:34.137Z,7.30
2019-05-12T19:50:37.784Z,7.30
2019-05-12T19:55:41.470Z,7.50
2019-05-12T20:00:46.987Z,7.50
2019-05-12T20:05:50.659Z,7.50
2019-05-12T20:10:54.397Z,7.60
2019-05-12T20:15:58.000Z,7.20
2019-05-12T20:21:04.306Z,7.20
2019-05-12T20:26:07.227Z,7.40
2019-05-12T20:31:10.853Z,7.60
2019-05-12T20:36:14.496Z,7.50
2019-05-12T20:41:23.456Z,7.60
2019-05-12T20:46:25.870Z,7.60
2019-05-12T20:51:28.815Z,7.40
2019-05-12T20:56:34.309Z,7.30
2019-05-12T21:01:37.951Z,7.50
2019-05-12T21:06:43.190Z,7.20
2019-05-12T21:11:46.843Z,7.40
2019-05-12T21:16:50.620Z,7.50
2019-05-12T21:21:54.174Z,7.60
2019-05-12T21:26:57.858Z,7.20
2019-05-12T21:32:02.861Z,7.40
2019-05-12T21:37:06.850Z,7.40
2019-05-12T21:42:10.587Z,7.30
2019-05-12T21:47:14.193Z,7.40
2019-05-12T21:52:17.818Z,7.00
2019-05-12T21:57:27.468Z,7.10
2019-05-12T22:02:30.782Z,7.20
2019-05-12T22:07:38.011Z,7.40
2019-05-12T22:12:37.490Z,7.10
2019-05-12T22:17:59.235Z,7.30
2019-05-12T22:23:06.985Z,7.30
2019-05-12T22:28:10.349Z,7.40
2019-05-12T22:33:14.163Z,7.40
2019-05-12T22:38:21.054Z,7.50
2019-05-12T22:43:23.795Z,7.50
2019-05-12T22:48:29.834Z,7.60
2019-05-12T22:53:33.016Z,7.60
2019-05-12T22:58:36.878Z,7.70
2019-05-12T23:03:43.172Z,7.60
2019-05-12T23:08:49.258Z,7.60
2019-05-12T23:13:53.204Z,7.70
2019-05-12T23:19:01.283Z,7.70
2019-05-12T23:24:03.618Z,7.80
2019-05-12T23:29:07.133Z,7.70
2019-05-12T23:34:12.134Z,7.70
2019-05-12T23:39:16.047Z,7.60
2019-05-12T23:44:19.749Z,7.50
2019-05-12T23:49:24.393Z,7.50
2019-05-12T23:54:28.071Z,7.50
2019-05-12T23:59:33.450Z,7.50
